Data for 08/02/2015

Time Sea-Level Adjusted Pressure Absolute Pressure Temperature Relative Humidity Dew Point   
(mb) (inHg) (mb) (inHg) (C) (F) (%) (C) (F)
00:05 1020 30.12 849 25.07 19.3 66.7 31 1.9 35.5
00:10 1020 30.12 849 25.07 19.3 66.7 30 1.4 34.5
00:15 1020 30.12 849 25.07 19.4 67 29 1.3 34.4
00:20 1020 30.12 849 25.07 19.5 67.1 31 2 35.6
00:25 1020 30.12 849 25.07 19 66.2 31 1.7 35.1
00:30 1020 30.12 849 25.07 18.9 66 32 2.1 35.8
00:35 1020 30.12 849 25.07 18.7 65.7 33 2.1 35.9
00:40 1020 30.12 849 25.07 18.5 65.3 32 1.5 34.7
00:45 1020 30.12 849 25.07 19.2 66.5 29 0.8 33.4
00:50 1020 30.12 849 25.07 19.4 67 30 1.8 35.2
00:55 1020 30.12 849 25.07 19.2 66.5 31 1.6 34.9
01:00 1020 30.12 849 25.07 19.5 67 28 0.7 33.2
01:05 1020 30.12 849 25.07 19.6 67.2 31 2.3 36.2
01:10 1020 30.12 849 25.07 18.8 65.8 32 1.7 35.1
01:15 1020 30.12 849 25.07 18.4 65.1 35 2.7 36.9
01:20 1020 30.12 849 25.07 17.6 63.6 37 2.7 36.9
01:25 1020 30.12 849 25.07 17.4 63.3 37 2.5 36.5
01:30 1020 30.12 849 25.07 17.2 62.9 37 2.6 36.6
01:35 1020 30.12 849 25.07 17.1 62.8 37 2.4 36.3
01:40 1020 30.12 849 25.07 17.6 63.7 34 1.8 35.2
01:45 1020 30.12 849 25.07 17.6 63.8 36 2.3 36.2
01:50 1020 30.12 849 25.07 17.1 62.8 39 3.1 37.5
01:55 1020 30.12 849 25.07 16.6 61.8 38 2.4 36.4
02:00 1020 30.12 849 25.07 16.7 62.1 35 1.5 34.6
02:05 1020 30.12 849 25.07 17.3 63.1 35 1.9 35.4
02:10 1020 30.12 849 25.07 17.3 63.1 36 2.3 36.1
02:15 1020 30.12 849 25.07 17.1 62.7 36 2.2 35.9
02:20 1020 30.12 849 25.07 17.2 62.9 35 1.8 35.2
02:25 1020 30.12 849 25.07 17.6 63.6 34 1.6 34.9
02:30 1020 30.12 849 25.07 17.5 63.6 34 1.8 35.2
02:35 1020 30.12 850 25.1 17.8 64 33 1.3 34.3
02:40 1020 30.12 850 25.1 17.8 64.1 34 1.7 35.1
02:45 1020 30.12 850 25.1 17.8 64.1 32 1.2 34.2
02:50 1020 30.12 850 25.1 18 64.4 32 1.3 34.3
02:55 1020 30.12 850 25.1 18.1 64.6 32 1.3 34.4
03:00 1020 30.12 850 25.1 18 64.4 34 1.8 35.3
03:05 1020 30.12 850 25.1 17.8 64 33 1.4 34.5
03:10 1020 30.12 850 25.1 17.7 63.8 33 1.5 34.7
03:15 1020 30.12 850 25.1 17.9 64.1 32 1.1 33.9
03:20 1020 30.12 850 25.1 18.2 64.7 31 1.1 33.9
03:25 1020 30.12 850 25.1 18.1 64.5 33 1.5 34.6
03:30 1020 30.12 850 25.1 17.8 64 33 1.4 34.6
03:35 1020 30.12 850 25.1 17.5 63.4 35 1.9 35.5
03:40 1020 30.12 850 25.1 16.9 62.4 37 2.2 36
03:45 1020 30.12 850 25.1 16.6 61.9 36 1.8 35.2
03:50 1020 30.12 850 25.1 17 62.5 34 1 33.8
03:55 1020 30.12 850 25.1 17.3 63.2 34 1.3 34.4
04:00 1020 30.12 850 25.1 17.4 63.2 33 0.9 33.7
04:05 1020 30.12 850 25.1 17.7 63.8 32 0.8 33.5
04:10 1020 30.12 850 25.1 17.8 64 33 1.3 34.3
04:15 1020 30.12 850 25.1 17.2 63 35 1.6 35
04:20 1020 30.12 850 25.1 16.6 62 38 2.3 36.1
04:25 1020 30.12 850 25.1 16.4 61.5 37 1.9 35.4
04:30 1020 30.12 850 25.1 16.2 61.2 37 1.5 34.8
04:35 1020 30.12 850 25.1 16.2 61.1 37 1.5 34.8
04:40 1020 30.12 850 25.1 16.2 61.2 36 1.3 34.3
04:45 1020 30.12 850 25.1 16.3 61.4 36 1.3 34.3
04:50 1020 30.12 850 25.1 16.2 61.1 37 1.5 34.7
04:55 1021 30.15 850 25.1 15.8 60.4 37 1.3 34.4
05:00 1021 30.15 850 25.1 15.9 60.6 36 0.9 33.6
05:05 1021 30.15 850 25.1 16.1 61 35 0.8 33.4
05:10 1021 30.15 850 25.1 16.2 61.2 34 0.6 33.1
05:15 1021 30.15 850 25.1 16.5 61.7 33 0.4 32.8
05:20 1021 30.15 850 25.1 16.6 61.9 34 0.9 33.6
05:25 1021 30.15 850 25.1 16 60.8 40 2.4 36.3
05:30 1021 30.15 850 25.1 15.1 59.3 41 1.9 35.4
05:35 1021 30.15 850 25.1 15.1 59.3 36 0.1 32.2
05:40 1021 30.15 850 25.1 15.9 60.6 35 0.5 32.9
05:45 1021 30.15 850 25.1 16.1 60.9 34 0.4 32.7
05:50 1021 30.15 850 25.1 16.1 60.9 35 0.6 33.2
05:55 1021 30.15 850 25.1 16 60.8 36 0.9 33.5
06:00 1021 30.15 850 25.1 16.1 60.9 35 0.7 33.2
06:05 1021 30.15 850 25.1 16.2 61.1 36 1.2 34.2
06:10 1021 30.15 850 25.1 15.9 60.7 43 3.4 38.1
06:15 1021 30.15 850 25.1 15.8 60.4 39 2 35.6
06:20 1021 30.15 850 25.1 15.8 60.4 38 1.7 35
06:25 1021 30.15 850 25.1 15.9 60.5 37 1.3 34.3
06:30 1021 30.15 850 25.1 16.3 61.3 35 1 33.8
06:35 1021 30.15 850 25.1 16.7 62.1 35 1.2 34.1
06:40 1021 30.15 850 25.1 17.1 62.7 34 1.2 34.2
06:45 1021 30.15 850 25.1 17.3 63.2 33 0.9 33.6
06:50 1021 30.15 850 25.1 17.6 63.8 34 1.7 35.1
06:55 1021 30.15 850 25.1 17.9 64.2 36 2.5 36.6
07:00 1021 30.15 850 25.1 17.9 64.2 35 2.2 36
07:05 1021 30.15 850 25.1 18 64.3 35 2.3 36.2
07:10 1021 30.15 850 25.1 18.2 64.7 35 2.5 36.4
07:15 1021 30.15 850 25.1 18.2 64.8 40 4.5 40.1
07:20 1021 30.15 850 25.1 18.4 65 37 3.7 38.7
07:25 1021 30.15 850 25.1 18.5 65.4 37 3.9 39
07:30 1021 30.15 850 25.1 18.6 65.5 36 3.6 38.4
07:35 1021 30.15 850 25.1 19 66.2 36 3.6 38.6
07:40 1021 30.15 850 25.1 19.5 67 36 4.2 39.5
07:45 1021 30.15 850 25.1 19.8 67.6 38 5.3 41.5
07:50 1021 30.15 850 25.1 20.2 68.4 33 3.8 38.8
07:55 1021 30.15 850 25.1 20.8 69.4 33 4 39.2
08:00 1021 30.15 851 25.13 21 69.8 33 4.3 39.8
08:05 1021 30.15 851 25.13 20.8 69.5 32 3.6 38.4
08:10 1021 30.15 851 25.13 20.8 69.4 32 3.8 38.8
08:15 1021 30.15 850 25.1 21.3 70.3 32 4.3 39.7
08:20 1021 30.15 850 25.1 21.8 71.3 31 4.2 39.6
08:25 1021 30.15 851 25.13 22.5 72.5 30 4.3 39.8
08:30 1021 30.15 851 25.13 23.4 74.1 29 4.4 39.9
08:35 1021 30.15 851 25.13 24.2 75.5 28 4.8 40.7
08:40 1022 30.18 851 25.13 24.3 75.7 26 3.7 38.7
08:45 1022 30.18 851 25.13 23.9 75 26 3.5 38.3
08:50 1022 30.18 851 25.13 24.3 75.8 26 3.8 38.8
08:55 1021 30.15 851 25.13 23.9 74.9 26 3.4 38.2
09:00 1021 30.15 851 25.13 24.6 76.3 25 3.8 38.9
09:05 1021 30.15 851 25.13 24.8 76.6 24 3.2 37.7
09:10 1021 30.15 851 25.13 25 77 23 2.6 36.8
09:15 1021 30.15 851 25.13 25.1 77.2 23 2.9 37.2
09:20 1021 30.15 851 25.13 25 77.1 23 2.7 36.9
09:25 1021 30.15 851 25.13 25.7 78.3 22 2.5 36.4
09:30 1021 30.15 851 25.13 26.5 79.7 21 2.7 36.9
09:35 1021 30.15 851 25.13 26.6 79.9 21 3 37.3
09:40 1021 30.15 851 25.13 26.5 79.7 22 3.4 38.2
09:45 1021 30.15 851 25.13 26.4 79.5 23 3.8 38.9
09:50 1021 30.15 851 25.13 25.9 78.5 22 3.1 37.5
09:55 1021 30.15 851 25.13 25.7 78.3 24 3.6 38.5
10:00 1021 30.15 850 25.1 26 78.8 22 2.7 36.9
10:05 1021 30.15 850 25.1 27.2 80.9 21 2.9 37.3
10:10 1021 30.15 850 25.1 27.5 81.4 21 3.8 38.9
10:15 1021 30.15 850 25.1 26.6 79.8 22 3.5 38.4
10:20 1021 30.15 850 25.1 27.1 80.8 22 3.6 38.5
10:25 1021 30.15 850 25.1 27 80.6 22 3.5 38.3
10:30 1021 30.15 850 25.1 27 80.5 23 4.1 39.3
10:35 1021 30.15 850 25.1 27.4 81.4 23 4.9 40.8
10:40 1021 30.15 850 25.1 28 82.4 20 3.3 38
10:45 1021 30.15 850 25.1 28.2 82.8 20 3.3 38
10:50 1021 30.15 850 25.1 27.6 81.7 21 3.3 37.9
10:55 1021 30.15 850 25.1 27.8 82.1 21 3.8 38.8
11:00 1021 30.15 850 25.1 28 82.3 20 3.1 37.6
11:05 1021 30.15 850 25.1 28.4 83.2 21 4.2 39.5
11:10 1021 30.15 850 25.1 28.1 82.5 20 3.5 38.3
11:15 1021 30.15 850 25.1 28.7 83.6 18 2.5 36.6
11:20 1021 30.15 850 25.1 29 84.3 19 3.6 38.5
11:25 1021 30.15 850 25.1 29.3 84.7 17 2.2 36
11:30 1021 30.15 850 25.1 29.5 85 18 2.8 37
11:35 1021 30.15 850 25.1 29.1 84.4 16 0.7 33.3
11:40 1021 30.15 850 25.1 28.4 83 15 -0.3 31.5
11:45 1021 30.15 850 25.1 28.7 83.7 15 0.3 32.5
11:50 1021 30.15 850 25.1 29.5 85.1 15 0.1 32.2
11:55 1021 30.15 850 25.1 30 85.9 15 0.6 33
12:00 1021 30.15 850 25.1 30.1 86.1 14 -0.2 31.6
12:05 1021 30.15 850 25.1 29.1 84.3 13 -1.8 28.8
12:10 1021 30.15 850 25.1 28.9 84.1 14 -0.9 30.5
12:15 1021 30.15 850 25.1 29.6 85.3 13 -1.1 30.1
12:20 1021 30.15 850 25.1 30.5 86.9 14 -0.1 31.8
12:25 1021 30.15 850 25.1 30.7 87.3 13 -0.1 31.8
12:30 1021 30.15 850 25.1 30.5 86.8 13 -0.6 30.9
12:35 1021 30.15 850 25.1 30.1 86.1 13 -1.4 29.5
12:40 1021 30.15 850 25.1 30 86 13 -1.4 29.5
12:45 1020 30.12 850 25.1 30.5 86.9 12 -1.3 29.6
12:50 1020 30.12 850 25.1 30.6 87.1 13 -1.1 30
12:55 1020 30.12 850 25.1 29.6 85.3 12 -2.6 27.4
13:00 1020 30.12 850 25.1 30.3 86.5 12 -1.8 28.7
13:05 1020 30.12 850 25.1 30.7 87.2 13 -1 30.2
13:10 1020 30.12 849 25.07 30.9 87.7 13 -0.4 31.2
13:15 1020 30.12 849 25.07 30.9 87.6 12 -2 28.4
13:20 1020 30.12 849 25.07 30.7 87.2 11 -2.3 27.9
13:25 1020 30.12 849 25.07 31 87.8 12 -1.9 28.6
13:30 1020 30.12 849 25.07 31.7 89.1 11 -2.6 27.4
13:35 1020 30.12 849 25.07 31.4 88.6 11 -2.8 26.9
13:40 1020 30.12 849 25.07 31.7 89.1 11 -1.9 28.6
13:45 1020 30.12 849 25.07 31.5 88.6 11 -2.5 27.6
13:50 1020 30.12 849 25.07 30.8 87.4 10 -3.5 25.6
13:55 1020 30.12 849 25.07 31.2 88.2 11 -2.2 28.1
14:00 1020 30.12 849 25.07 31.5 88.7 12 -1 30.2
14:05 1020 30.12 849 25.07 31.1 87.9 11 -2.8 27
14:10 1020 30.12 849 25.07 31.3 88.3 10 -3.1 26.4
14:15 1020 30.12 849 25.07 31.5 88.6 10 -3.2 26.2
14:20 1020 30.12 849 25.07 31.5 88.7 10 -3.1 26.5
14:25 1020 30.12 849 25.07 31.8 89.3 11 -2.5 27.6
14:30 1020 30.12 849 25.07 32.1 89.7 10 -3.5 25.7
14:35 1019 30.09 849 25.07 32.1 89.8 10 -2.5 27.6
14:40 1019 30.09 849 25.07 31.6 88.8 10 -2.9 26.9
14:45 1019 30.09 849 25.07 31.4 88.5 10 -3.9 25
14:50 1019 30.09 849 25.07 32.4 90.2 11 -2 28.3
14:55 1019 30.09 849 25.07 32.1 89.9 9 -4.1 24.6
15:00 1019 30.09 848 25.04 32.2 90 10 -3.4 25.9
15:05 1019 30.09 848 25.04 31.6 88.9 10 -3.8 25.1
15:10 1019 30.09 848 25.04 30.8 87.5 11 -3.3 26.1
15:15 1019 30.09 848 25.04 31.3 88.4 10 -3.6 25.5
15:20 1019 30.09 848 25.04 31.8 89.2 9 -4.2 24.5
15:25 1019 30.09 848 25.04 31.4 88.5 8 -6.3 20.7
15:30 1019 30.09 848 25.04 30.9 87.6 8 -6.2 20.8
15:35 1019 30.09 848 25.04 31.1 88 9 -5.2 22.6
15:40 1019 30.09 848 25.04 31 87.9 10 -3.9 25
15:45 1019 30.09 848 25.04 31.2 88.2 10 -4 24.7
15:50 1019 30.09 848 25.04 31.8 89.2 8 -5.9 21.4
15:55 1019 30.09 848 25.04 32 89.6 9 -4.9 23.2
16:00 1019 30.09 848 25.04 32.5 90.4 8 -6.4 20.4
16:05 1019 30.09 848 25.04 32.3 90.1 8 -5.4 22.3
16:10 1019 30.09 848 25.04 31.5 88.6 9 -5.5 22.2
16:15 1019 30.09 848 25.04 31.4 88.6 9 -4.8 23.4
16:20 1019 30.09 848 25.04 31.4 88.6 8 -6.1 21.1
16:25 1019 30.09 848 25.04 31.5 88.6 10 -3.9 25
16:30 1019 30.09 848 25.04 31.7 89.1 8 -6.3 20.7
16:35 1019 30.09 848 25.04 31.3 88.3 10 -4.3 24.3
16:40 1019 30.09 848 25.04 31.4 88.6 10 -4.1 24.7
16:45 1019 30.09 848 25.04 31.7 89 9 -4.6 23.7
16:50 1019 30.09 848 25.04 31.7 89 9 -4.2 24.4
16:55 1019 30.09 848 25.04 31.6 88.9 9 -4.1 24.6
17:00 1018 30.06 848 25.04 31.6 88.9 10 -2.7 27.1
17:05 1018 30.06 848 25.04 31.6 89 10 -3.1 26.4
17:10 1018 30.06 848 25.04 31.5 88.7 9 -4.5 24
17:15 1018 30.06 848 25.04 31.4 88.5 9 -4.8 23.4
17:20 1018 30.06 848 25.04 31.1 87.9 10 -4.2 24.4
17:25 1018 30.06 847 25.01 30.7 87.3 10 -3.5 25.7
17:30 1018 30.06 847 25.01 30.3 86.6 11 -2.9 26.8
17:35 1018 30.06 847 25.01 30.4 86.8 10 -3.8 25.2
17:40 1018 30.06 847 25.01 30.1 86.1 10 -4.9 23.2
17:45 1018 30.06 847 25.01 29.8 85.6 10 -4.5 23.8
17:50 1018 30.06 847 25.01 29.8 85.6 10 -4.4 24.1
17:55 1018 30.06 847 25.01 29.9 85.9 10 -4.5 23.9
18:00 1018 30.06 847 25.01 30 85.9 10 -4.2 24.4
18:05 1018 30.06 847 25.01 29.7 85.5 11 -3.7 25.4
18:10 1018 30.06 847 25.01 29.6 85.2 12 -2.9 26.8
18:15 1018 30.06 847 25.01 29.3 84.7 11 -3.8 25.2
18:20 1018 30.06 847 25.01 29.1 84.4 11 -3.5 25.7
18:25 1018 30.06 847 25.01 29 84.1 14 -1.4 29.5
18:30 1018 30.06 847 25.01 28.4 83.1 15 -0.3 31.4
18:35 1018 30.06 847 25.01 28 82.4 18 1.4 34.6
18:40 1018 30.06 847 25.01 27.7 81.9 18 1.5 34.7
18:45 1018 30.06 847 25.01 27.5 81.5 20 3 37.4
18:50 1018 30.06 847 25.01 27.5 81.5 16 -0.5 31
18:55 1018 30.06 847 25.01 27.4 81.3 15 -1.1 30
19:00 1018 30.06 847 25.01 27.2 81 20 2.7 36.8
19:05 1018 30.06 847 25.01 26.8 80.2 20 2.1 35.8
19:10 1018 30.06 847 25.01 26.5 79.6 22 3.6 38.4
19:15 1018 30.06 847 25.01 26.1 79 25 5 41
19:20 1018 30.06 847 25.01 25.8 78.4 25 4.5 40.1
19:25 1018 30.06 847 25.01 25.2 77.4 26 4.4 39.8
19:30 1018 30.06 847 25.01 24.6 76.4 26 4.1 39.4
19:35 1018 30.06 847 25.01 24.2 75.6 28 5 41
19:40 1018 30.06 847 25.01 23.8 74.8 28 4.2 39.6
19:45 1018 30.06 847 25.01 23.6 74.5 29 4.5 40.1
19:50 1018 30.06 847 25.01 23.6 74.4 24 2.1 35.7
19:55 1018 30.06 847 25.01 23.9 74.9 24 2.5 36.6
20:00 1018 30.06 847 25.01 23.7 74.6 24 2.1 35.8
20:05 1018 30.06 847 25.01 23.7 74.7 25 2.5 36.5
20:10 1018 30.06 847 25.01 23.5 74.4 25 2.7 36.8
20:15 1018 30.06 847 25.01 23.3 73.9 26 2.7 36.8
20:20 1018 30.06 847 25.01 23.4 74.1 25 2.4 36.3
20:25 1018 30.06 848 25.04 23.7 74.6 24 2.3 36.1
20:30 1018 30.06 848 25.04 23.9 75 24 2.6 36.7
20:35 1018 30.06 848 25.04 23.9 74.9 24 2.5 36.5
20:40 1018 30.06 848 25.04 24.2 75.6 24 2.7 36.8
20:45 1018 30.06 848 25.04 24.2 75.5 24 2.7 36.9
20:50 1019 30.09 848 25.04 24.2 75.5 24 2.8 37
20:55 1019 30.09 848 25.04 24.1 75.3 24 2.7 36.9
21:00 1019 30.09 848 25.04 24.1 75.4 25 3 37.4
21:05 1019 30.09 848 25.04 24.2 75.5 25 2.9 37.2
21:10 1019 30.09 848 25.04 24.1 75.4 25 3.1 37.6
21:15 1019 30.09 848 25.04 24.2 75.5 25 3.3 38
21:20 1019 30.09 848 25.04 24.1 75.4 26 3.5 38.3
21:25 1019 30.09 848 25.04 24.1 75.4 26 3.7 38.7
21:30 1019 30.09 848 25.04 24.1 75.4 26 3.9 39
21:35 1019 30.09 848 25.04 24.1 75.3 27 4.2 39.5
21:40 1019 30.09 848 25.04 24 75.2 27 4.2 39.5
21:45 1018 30.06 848 25.04 23.9 75 28 4.4 39.9
21:50 1018 30.06 848 25.04 23.7 74.7 28 4.3 39.8
21:55 1018 30.06 848 25.04 23.6 74.6 28 4.4 39.9
22:00 1019 30.09 848 25.04 23.6 74.4 29 4.6 40.2
22:05 1019 30.09 848 25.04 23.4 74 29 4.6 40.2
22:10 1019 30.09 848 25.04 23.2 73.8 29 4.6 40.3
22:15 1019 30.09 848 25.04 23.1 73.5 30 4.6 40.3
22:20 1019 30.09 848 25.04 23 73.3 30 4.6 40.3
22:25 1019 30.09 848 25.04 22.9 73.3 30 4.7 40.4
22:30 1019 30.09 848 25.04 22.8 73.1 30 4.7 40.5
22:35 1019 30.09 848 25.04 22.7 72.9 31 4.8 40.7
22:40 1019 30.09 848 25.04 22.6 72.8 31 4.8 40.7
22:45 1019 30.09 848 25.04 22.5 72.6 31 4.8 40.6
22:50 1019 30.09 848 25.04 22.5 72.4 31 4.9 40.8
22:55 1019 30.09 848 25.04 22.4 72.3 31 4.8 40.6
23:00 1019 30.09 848 25.04 22.3 72.1 32 4.8 40.7
23:05 1019 30.09 848 25.04 22.1 71.8 32 4.8 40.7
23:10 1019 30.09 848 25.04 22 71.5 32 4.8 40.7
23:15 1019 30.09 848 25.04 21.8 71.3 33 4.8 40.7
23:20 1019 30.09 848 25.04 21.7 71.1 32 4.7 40.4
23:25 1019 30.09 848 25.04 21.7 71.1 32 4.5 40.2
23:30 1019 30.09 848 25.04 21.8 71.2 32 4.5 40.1
23:35 1019 30.09 848 25.04 21.8 71.2 32 4.5 40.1
23:40 1019 30.09 848 25.04 21.8 71.2 31 4.3 39.7
23:45 1019 30.09 848 25.04 21.8 71.2 31 4.2 39.5
23:50 1019 30.09 848 25.04 21.7 71 31 4.1 39.5
23:55 1019 30.09 848 25.04 21.6 70.8 32 4.2 39.5
24:00 1018 30.06 848 25.04 21.5 70.6 31 4 39.3